• Join FlightAware (Why Join?)
  • Login
  • US Flag 
05:28AM EDT


 

Airport Tracker/Info


-or-


 

Live Flight TrackerFlight Track Log ✈ N546QS ✈ 01-Jun-2013 ✈ KBOS - KLEB

Flight Track Log - Related Links

Times and Time Zones

All times are in EDT time to prevent confusion due to time zone crossing. See the N546QS flight status page for this flight to view local times or setup timezone preferences in your user account.

Time Position Orientation Groundspeed Altitude Reporting Facility
EDT Latitude Longitude Course Direction KTS MPH feet Rate Location/Type
06:31PM 42.3667 -71.0167 160° South 164 189 900  Level KA90
06:31PM 42.3333 -71.0000 160° South 173 199 2,800 3,780 Climbing KA90
06:32PM 42.3167 -70.9167 105° East 255 293 7,200 3,300 Climbing KA90
06:33PM 42.3500 -70.8167 66° East 312 359 9,700 1,440 Climbing KA90
06:34PM 42.4333 -70.7500 31° Northeast 360 414 10,100 180 Climbing KA90
06:35PM 42.5000 -70.7500 360° North 349 402 10,100 -60 Level KA90
06:36PM 42.5667 -70.8500 312° West 335 386 10,000 -60 Descending KA90
06:37PM 42.6167 -70.9500 304° West 335 386 10,000  Level KA90
06:38PM 42.6833 -71.0333 317° Northwest 334 384 10,000  Level KA90
06:39PM 42.7333 -71.1333 304° West 335 386 10,000  Level KA90
06:40PM 42.7833 -71.2333 304° West 334 384 10,000  Level KA90
06:41PM 42.8500 -71.3333 312° West 331 381 10,000  Level KA90
06:42PM 42.9167 -71.4167 318° Northwest 335 386 10,000  Level KA90
06:43PM 42.9833 -71.5000 318° Northwest 334 384 10,000  Level KA90
06:44PM 43.0914 -71.6069 324° Northwest 368 423 10,000  Level Boston Center
06:45PM 43.1564 -71.6717 324° Northwest 335 386 10,000  Level Boston Center
06:46PM 43.2236 -71.7447 322° Northwest 297 342 10,000 -60 Level Boston Center
06:47PM 43.2781 -71.8014 323° Northwest 275 316 9,900 -780 Descending Boston Center
06:49PM 43.3450 -71.8692 324° Northwest 275 316 8,400 -1,500 Descending Boston Center
06:50PM 43.4164 -71.9456 322° Northwest 275 316 6,600 -1,500 Descending Boston Center
06:51PM 43.4750 -72.0025 325° Northwest 275 316 5,500 -840 Descending Boston Center
06:52PM 43.5272 -72.0564 323° Northwest 253 291 5,000 -300 Descending Boston Center
06:53PM 43.5775 -72.1133 321° Northwest 242 278 5,000  Level Boston Center
06:54PM 43.6275 -72.1675 322° Northwest 237 273 5,000  Level Boston Center